Wilmington Island, Georgia
Current Conditions -  °F | °C
As of 12:58 PM on Friday 31 Oct 2014 (Local Time) from KSVN Reporting Station
Few Clouds Few Clouds  
Wind Chill: 72°   Ceiling: Unl
Heat Index: 72°   Visibility: 10mi
Dew Point: 47°   Wind: 7mph
Humidity: 40%   Direction: NA
Pressure: 29.84"   Gusts: NA
Location:  31.996°N, 80.9671°W
Report Text: KSVN 311658Z AUTO VRB06KT 10SM FEW060 22/08 A2984 RMK AO2 SLP108 T02240083
Loading
Personal Weather Stations






























Interactive Weather Map
Tropical Storm Tracking
New forecast layout! Learn more

10-Day Weather Forecast

Advertisements
Track Severe Weather on mobile